Terminal Aerodrome Forecast
Issued by NWS

Current Version | Previous Version | Text Only | Print | Product List | Glossary On
Versions: 1 2 3 4 5 6 7 8 9 10 11 12 13 14 15 16
000
FTUS46 KSEW 232332
TAFPAE
TAF
KPAE 232332Z 2400/2424 24005KT P6SM BKN100 BKN200
     FM240200 VRB04KT P6SM BKN100 BKN200
     FM241000 VRB02KT P6SM SCT009 OVC100
      TEMPO 2413/2417 BKN009 OVC100
     FM241800 24005KT P6SM SCT050 OVC100=

USA.gov is the U.S. government's official web portal to all federal, state and local government web resources and services.